sensor_id;sensor_type;location;lat;lon;timestamp;pressure;altitude;pressure_sealevel;temperature;humidity
18821;BME280;9539;59.332;18.034;2022-12-05T00:00:13;103046.72;;;-0.45;100.00
18821;BME280;9539;59.332;18.034;2022-12-05T00:02:40;103042.66;;;-0.32;100.00
18821;BME280;9539;59.332;18.034;2022-12-05T00:05:09;103057.50;;;-0.29;100.00
18821;BME280;9539;59.332;18.034;2022-12-05T00:07:37;103046.19;;;-0.30;100.00
18821;BME280;9539;59.332;18.034;2022-12-05T00:10:06;103054.09;;;-0.25;100.00
18821;BME280;9539;59.332;18.034;2022-12-05T00:12:33;103055.97;;;-0.20;100.00
18821;BME280;9539;59.332;18.034;2022-12-05T00:14:59;103049.16;;;-0.12;100.00
18821;BME280;9539;59.332;18.034;2022-12-05T00:17:26;103046.56;;;-0.10;100.00
18821;BME280;9539;59.332;18.034;2022-12-05T00:19:53;103047.03;;;-0.31;100.00
18821;BME280;9539;59.332;18.034;2022-12-05T00:22:19;103052.22;;;-0.32;100.00
18821;BME280;9539;59.332;18.034;2022-12-05T00:24:48;103050.59;;;-0.26;100.00
18821;BME280;9539;59.332;18.034;2022-12-05T00:27:15;103054.88;;;-0.29;100.00
18821;BME280;9539;59.332;18.034;2022-12-05T00:29:41;103061.09;;;-0.63;100.00
18821;BME280;9539;59.332;18.034;2022-12-05T00:32:08;103062.38;;;-0.84;100.00
18821;BME280;9539;59.332;18.034;2022-12-05T00:34:35;103061.84;;;-1.06;100.00
18821;BME280;9539;59.332;18.034;2022-12-05T00:37:02;103054.47;;;-1.24;100.00
18821;BME280;9539;59.332;18.034;2022-12-05T00:39:28;103053.31;;;-1.35;100.00
18821;BME280;9539;59.332;18.034;2022-12-05T00:41:56;103032.78;;;-1.23;100.00
18821;BME280;9539;59.332;18.034;2022-12-05T00:44:23;103053.81;;;-0.79;100.00
18821;BME280;9539;59.332;18.034;2022-12-05T00:46:50;103046.03;;;-0.76;100.00
18821;BME280;9539;59.332;18.034;2022-12-05T00:49:17;103046.78;;;-0.82;100.00
18821;BME280;9539;59.332;18.034;2022-12-05T00:51:44;103019.41;;;-1.01;100.00
18821;BME280;9539;59.332;18.034;2022-12-05T00:54:12;103028.03;;;-1.03;100.00
18821;BME280;9539;59.332;18.034;2022-12-05T00:56:40;103036.78;;;-1.01;100.00
18821;BME280;9539;59.332;18.034;2022-12-05T00:59:13;103036.53;;;-1.12;100.00
18821;BME280;9539;59.332;18.034;2022-12-05T01:01:41;103042.44;;;-1.19;100.00
18821;BME280;9539;59.332;18.034;2022-12-05T01:04:11;103030.28;;;-1.18;100.00
18821;BME280;9539;59.332;18.034;2022-12-05T01:06:39;103036.53;;;-1.46;100.00
18821;BME280;9539;59.332;18.034;2022-12-05T01:09:07;103036.31;;;-1.55;100.00
18821;BME280;9539;59.332;18.034;2022-12-05T01:11:34;103051.66;;;-1.66;100.00
18821;BME280;9539;59.332;18.034;2022-12-05T01:14:02;103041.31;;;-1.30;100.00
18821;BME280;9539;59.332;18.034;2022-12-05T01:16:31;103040.88;;;-1.12;100.00
18821;BME280;9539;59.332;18.034;2022-12-05T01:19:01;103037.34;;;-1.14;100.00
18821;BME280;9539;59.332;18.034;2022-12-05T01:21:28;103031.25;;;-1.15;100.00
18821;BME280;9539;59.332;18.034;2022-12-05T01:23:55;103036.78;;;-1.01;100.00
18821;BME280;9539;59.332;18.034;2022-12-05T01:26:22;103040.91;;;-1.09;100.00
18821;BME280;9539;59.332;18.034;2022-12-05T01:28:50;103033.78;;;-1.18;100.00
18821;BME280;9539;59.332;18.034;2022-12-05T01:31:20;103043.03;;;-1.31;100.00
18821;BME280;9539;59.332;18.034;2022-12-05T01:33:50;103035.06;;;-1.01;100.00
18821;BME280;9539;59.332;18.034;2022-12-05T01:36:19;103040.16;;;-1.05;100.00
18821;BME280;9539;59.332;18.034;2022-12-05T01:38:46;103036.41;;;-1.18;100.00
18821;BME280;9539;59.332;18.034;2022-12-05T01:41:17;103031.31;;;-1.12;100.00
18821;BME280;9539;59.332;18.034;2022-12-05T01:43:57;103031.28;;;-1.13;100.00
18821;BME280;9539;59.332;18.034;2022-12-05T01:46:26;103024.38;;;-1.11;100.00
18821;BME280;9539;59.332;18.034;2022-12-05T01:48:59;103022.09;;;-0.98;100.00
18821;BME280;9539;59.332;18.034;2022-12-05T01:51:27;103027.56;;;-0.87;100.00
18821;BME280;9539;59.332;18.034;2022-12-05T01:53:55;103024.16;;;-0.83;100.00
18821;BME280;9539;59.332;18.034;2022-12-05T01:56:22;103016.38;;;-0.82;100.00
18821;BME280;9539;59.332;18.034;2022-12-05T01:58:49;103022.09;;;-0.98;100.00
18821;BME280;9539;59.332;18.034;2022-12-05T02:01:19;103023.50;;;-1.12;100.00
18821;BME280;9539;59.332;18.034;2022-12-05T02:03:47;103020.72;;;-1.19;100.00
18821;BME280;9539;59.332;18.034;2022-12-05T02:06:17;103012.22;;;-1.47;100.00
18821;BME280;9539;59.332;18.034;2022-12-05T02:08:45;103018.16;;;-1.16;100.00
18821;BME280;9539;59.332;18.034;2022-12-05T02:11:12;103014.22;;;-1.37;100.00
18821;BME280;9539;59.332;18.034;2022-12-05T02:13:52;103015.84;;;-1.06;100.00
18821;BME280;9539;59.332;18.034;2022-12-05T02:16:28;103015.94;;;-1.01;100.00
18821;BME280;9539;59.332;18.034;2022-12-05T02:19:07;102998.09;;;-0.85;100.00
18821;BME280;9539;59.332;18.034;2022-12-05T02:22:11;103007.03;;;-1.09;100.00
18821;BME280;9539;59.332;18.034;2022-12-05T02:24:58;103004.63;;;-1.02;100.00
18821;BME280;9539;59.332;18.034;2022-12-05T02:30:32;103014.16;;;-1.04;100.00
18821;BME280;9539;59.332;18.034;2022-12-05T02:33:09;103011.81;;;-0.90;100.00
18821;BME280;9539;59.332;18.034;2022-12-05T02:35:47;103014.44;;;-0.92;100.00
18821;BME280;9539;59.332;18.034;2022-12-05T02:38:23;102995.19;;;-0.97;100.00
18821;BME280;9539;59.332;18.034;2022-12-05T02:41:00;103000.44;;;-1.33;100.00
18821;BME280;9539;59.332;18.034;2022-12-05T02:43:31;103004.34;;;-1.14;100.00
18821;BME280;9539;59.332;18.034;2022-12-05T02:46:04;102994.47;;;-0.90;100.00
18821;BME280;9539;59.332;18.034;2022-12-05T02:48:34;103000.38;;;-0.97;100.00
18821;BME280;9539;59.332;18.034;2022-12-05T02:51:04;102997.63;;;-1.04;100.00
18821;BME280;9539;59.332;18.034;2022-12-05T02:53:34;102988.28;;;-0.95;100.00
18821;BME280;9539;59.332;18.034;2022-12-05T02:56:04;102986.91;;;-0.77;100.00
18821;BME280;9539;59.332;18.034;2022-12-05T02:58:35;102987.16;;;-1.06;100.00
18821;BME280;9539;59.332;18.034;2022-12-05T03:01:06;102975.66;;;-0.76;100.00
18821;BME280;9539;59.332;18.034;2022-12-05T03:03:33;102979.38;;;-0.64;100.00
18821;BME280;9539;59.332;18.034;2022-12-05T03:06:05;102971.31;;;-0.76;100.00
18821;BME280;9539;59.332;18.034;2022-12-05T03:08:37;102970.63;;;-1.08;100.00
18821;BME280;9539;59.332;18.034;2022-12-05T03:11:08;102965.00;;;-0.87;100.00
18821;BME280;9539;59.332;18.034;2022-12-05T03:13:39;102969.25;;;-0.91;100.00
18821;BME280;9539;59.332;18.034;2022-12-05T03:16:11;102964.25;;;-0.82;100.00
18821;BME280;9539;59.332;18.034;2022-12-05T03:18:45;102970.50;;;-0.73;100.00
18821;BME280;9539;59.332;18.034;2022-12-05T03:21:20;102957.66;;;-0.64;100.00
18821;BME280;9539;59.332;18.034;2022-12-05T03:23:54;102963.94;;;-0.55;100.00
18821;BME280;9539;59.332;18.034;2022-12-05T03:26:35;102965.03;;;-0.86;100.00
18821;BME280;9539;59.332;18.034;2022-12-05T03:29:13;102961.19;;;-0.62;100.00
18821;BME280;9539;59.332;18.034;2022-12-05T03:31:50;102956.63;;;-0.71;100.00
18821;BME280;9539;59.332;18.034;2022-12-05T03:34:21;102949.56;;;-0.76;100.00
18821;BME280;9539;59.332;18.034;2022-12-05T03:36:52;102943.94;;;-0.56;100.00
18821;BME280;9539;59.332;18.034;2022-12-05T03:39:23;102934.47;;;-0.51;100.00
18821;BME280;9539;59.332;18.034;2022-12-05T03:41:56;102950.94;;;-0.52;100.00
18821;BME280;9539;59.332;18.034;2022-12-05T03:44:30;102941.25;;;-0.60;100.00
18821;BME280;9539;59.332;18.034;2022-12-05T03:47:02;102940.41;;;-0.58;100.00
18821;BME280;9539;59.332;18.034;2022-12-05T03:49:34;102941.63;;;-0.41;100.00
18821;BME280;9539;59.332;18.034;2022-12-05T03:52:05;102933.16;;;-0.29;100.00
18821;BME280;9539;59.332;18.034;2022-12-05T03:54:36;102933.97;;;-0.31;100.00
18821;BME280;9539;59.332;18.034;2022-12-05T03:57:07;102924.09;;;-0.48;100.00
18821;BME280;9539;59.332;18.034;2022-12-05T03:59:39;102911.97;;;-0.46;100.00
18821;BME280;9539;59.332;18.034;2022-12-05T04:02:12;102919.81;;;-0.44;100.00
18821;BME280;9539;59.332;18.034;2022-12-05T04:04:47;102919.50;;;-0.61;100.00
18821;BME280;9539;59.332;18.034;2022-12-05T04:07:17;102919.91;;;-0.39;100.00
18821;BME280;9539;59.332;18.034;2022-12-05T04:09:49;102913.16;;;-0.28;100.00
18821;BME280;9539;59.332;18.034;2022-12-05T04:12:20;102915.63;;;-0.36;100.00
18821;BME280;9539;59.332;18.034;2022-12-05T04:14:50;102906.25;;;-0.25;100.00
18821;BME280;9539;59.332;18.034;2022-12-05T04:17:24;102907.13;;;-0.24;100.00
18821;BME280;9539;59.332;18.034;2022-12-05T04:19:55;102908.06;;;-0.22;100.00
18821;BME280;9539;59.332;18.034;2022-12-05T04:22:41;102909.47;;;-0.38;100.00
18821;BME280;9539;59.332;18.034;2022-12-05T04:25:11;102905.41;;;-0.24;100.00
18821;BME280;9539;59.332;18.034;2022-12-05T04:30:44;102899.31;;;-0.24;100.00
18821;BME280;9539;59.332;18.034;2022-12-05T04:33:18;102892.50;;;-0.16;100.00
18821;BME280;9539;59.332;18.034;2022-12-05T04:35:51;102888.06;;;-0.22;100.00
18821;BME280;9539;59.332;18.034;2022-12-05T04:38:23;102890.06;;;-0.07;100.00
18821;BME280;9539;59.332;18.034;2022-12-05T04:40:54;102890.91;;;-0.08;100.00
18821;BME280;9539;59.332;18.034;2022-12-05T04:43:24;102897.78;;;-0.13;100.00
18821;BME280;9539;59.332;18.034;2022-12-05T04:45:53;102889.81;;;-0.21;100.00
18821;BME280;9539;59.332;18.034;2022-12-05T04:48:26;102882.28;;;-0.04;100.00
18821;BME280;9539;59.332;18.034;2022-12-05T04:50:54;102879.53;;;-0.13;100.00
18821;BME280;9539;59.332;18.034;2022-12-05T04:53:24;102873.75;;;0.06;100.00
18821;BME280;9539;59.332;18.034;2022-12-05T04:55:55;102880.34;;;-0.16;100.00
18821;BME280;9539;59.332;18.034;2022-12-05T04:58:25;102879.84;;;0.05;100.00
18821;BME280;9539;59.332;18.034;2022-12-05T05:00:56;102879.94;;;0.11;100.00
18821;BME280;9539;59.332;18.034;2022-12-05T05:03:30;102877.97;;;-0.02;100.00
18821;BME280;9539;59.332;18.034;2022-12-05T05:06:00;102880.00;;;0.16;100.00
18821;BME280;9539;59.332;18.034;2022-12-05T05:08:28;102877.28;;;0.10;100.00
18821;BME280;9539;59.332;18.034;2022-12-05T05:11:02;102890.06;;;-0.07;100.00
18821;BME280;9539;59.332;18.034;2022-12-05T05:13:30;102882.41;;;0.04;100.00
18821;BME280;9539;59.332;18.034;2022-12-05T05:15:57;102885.97;;;0.09;100.00
18821;BME280;9539;59.332;18.034;2022-12-05T05:18:23;102879.06;;;0.12;100.00
18821;BME280;9539;59.332;18.034;2022-12-05T05:20:51;102874.31;;;-0.12;100.00
18821;BME280;9539;59.332;18.034;2022-12-05T05:23:18;102875.34;;;-0.02;100.00
18821;BME280;9539;59.332;18.034;2022-12-05T05:25:45;102869.44;;;0.10;100.00
18821;BME280;9539;59.332;18.034;2022-12-05T05:28:16;102878.19;;;0.13;100.00
18821;BME280;9539;59.332;18.034;2022-12-05T05:30:43;102850.81;;;-0.13;100.00
18821;BME280;9539;59.332;18.034;2022-12-05T05:33:10;102871.31;;;0.17;100.00
18821;BME280;9539;59.332;18.034;2022-12-05T05:35:37;102866.13;;;0.18;100.00
18821;BME280;9539;59.332;18.034;2022-12-05T05:38:05;102860.13;;;0.25;100.00
18821;BME280;9539;59.332;18.034;2022-12-05T05:40:34;102867.84;;;0.18;100.00
18821;BME280;9539;59.332;18.034;2022-12-05T05:43:00;102866.78;;;0.05;100.00
18821;BME280;9539;59.332;18.034;2022-12-05T05:45:27;102854.59;;;0.07;100.00
18821;BME280;9539;59.332;18.034;2022-12-05T05:47:54;102852.00;;;0.07;100.00
18821;BME280;9539;59.332;18.034;2022-12-05T05:50:21;102848.22;;;-0.12;100.00
18821;BME280;9539;59.332;18.034;2022-12-05T05:52:47;102844.81;;;-0.06;100.00
18821;BME280;9539;59.332;18.034;2022-12-05T05:55:16;102836.47;;;0.15;100.00
18821;BME280;9539;59.332;18.034;2022-12-05T05:57:42;102823.69;;;0.31;100.00
18821;BME280;9539;59.332;18.034;2022-12-05T06:00:10;102823.78;;;0.40;100.00
18821;BME280;9539;59.332;18.034;2022-12-05T06:02:37;102830.84;;;0.45;100.00
18821;BME280;9539;59.332;18.034;2022-12-05T06:05:05;102828.28;;;0.52;100.00
18821;BME280;9539;59.332;18.034;2022-12-05T06:07:32;102833.41;;;0.43;100.00
18821;BME280;9539;59.332;18.034;2022-12-05T06:09:58;102830.88;;;0.49;100.00
18821;BME280;9539;59.332;18.034;2022-12-05T06:12:26;102836.13;;;0.51;100.00
18821;BME280;9539;59.332;18.034;2022-12-05T06:14:53;102826.44;;;0.42;100.00
18821;BME280;9539;59.332;18.034;2022-12-05T06:17:20;102823.06;;;0.49;100.00
18821;BME280;9539;59.332;18.034;2022-12-05T06:19:46;102805.44;;;0.36;100.00
18821;BME280;9539;59.332;18.034;2022-12-05T06:22:13;102804.47;;;0.28;100.00
18821;BME280;9539;59.332;18.034;2022-12-05T06:24:40;102809.47;;;0.13;100.00
18821;BME280;9539;59.332;18.034;2022-12-05T06:27:07;102806.22;;;0.29;100.00
18821;BME280;9539;59.332;18.034;2022-12-05T06:29:35;102806.28;;;0.33;100.00
18821;BME280;9539;59.332;18.034;2022-12-05T06:32:02;102817.50;;;0.28;100.00
18821;BME280;9539;59.332;18.034;2022-12-05T06:34:29;102817.66;;;0.37;100.00
18821;BME280;9539;59.332;18.034;2022-12-05T06:36:57;102812.72;;;-0.02;100.00
18821;BME280;9539;59.332;18.034;2022-12-05T06:39:24;102805.94;;;0.09;100.00
18821;BME280;9539;59.332;18.034;2022-12-05T06:41:50;102810.72;;;0.37;100.00
18821;BME280;9539;59.332;18.034;2022-12-05T06:44:17;102811.44;;;0.29;100.00
18821;BME280;9539;59.332;18.034;2022-12-05T06:46:47;102815.41;;;0.04;100.00
18821;BME280;9539;59.332;18.034;2022-12-05T06:49:14;102819.19;;;0.23;100.00
18821;BME280;9539;59.332;18.034;2022-12-05T06:51:40;102817.97;;;-0.01;100.00
18821;BME280;9539;59.332;18.034;2022-12-05T06:54:07;102816.44;;;0.15;100.00
18821;BME280;9539;59.332;18.034;2022-12-05T06:56:34;102822.25;;;-0.04;100.00
18821;BME280;9539;59.332;18.034;2022-12-05T06:59:02;102817.66;;;-0.19;100.00
18821;BME280;9539;59.332;18.034;2022-12-05T07:01:29;102819.38;;;-0.21;100.00
18821;BME280;9539;59.332;18.034;2022-12-05T07:04:09;102808.41;;;0.00;100.00
18821;BME280;9539;59.332;18.034;2022-12-05T07:06:36;102811.13;;;0.08;100.00
18821;BME280;9539;59.332;18.034;2022-12-05T07:09:03;102815.44;;;0.06;100.00
18821;BME280;9539;59.332;18.034;2022-12-05T07:11:31;102807.56;;;0.03;100.00
18821;BME280;9539;59.332;18.034;2022-12-05T07:13:58;102804.66;;;-0.16;100.00
18821;BME280;9539;59.332;18.034;2022-12-05T07:16:25;102793.84;;;0.16;100.00
18821;BME280;9539;59.332;18.034;2022-12-05T07:18:51;102805.47;;;0.37;100.00
18821;BME280;9539;59.332;18.034;2022-12-05T07:21:20;102806.31;;;0.35;100.00
18821;BME280;9539;59.332;18.034;2022-12-05T07:23:47;102802.72;;;0.28;100.00
18821;BME280;9539;59.332;18.034;2022-12-05T07:26:17;102797.69;;;0.42;100.00
18821;BME280;9539;59.332;18.034;2022-12-05T07:28:44;102795.84;;;0.35;100.00
18821;BME280;9539;59.332;18.034;2022-12-05T07:31:14;102796.03;;;0.49;100.00
18821;BME280;9539;59.332;18.034;2022-12-05T07:33:41;102802.28;;;0.58;100.00
18821;BME280;9539;59.332;18.034;2022-12-05T07:36:10;102796.97;;;0.54;100.00
18821;BME280;9539;59.332;18.034;2022-12-05T07:38:39;102791.00;;;0.62;100.00
18821;BME280;9539;59.332;18.034;2022-12-05T07:41:06;102794.59;;;0.72;100.00
18821;BME280;9539;59.332;18.034;2022-12-05T07:43:33;102792.09;;;0.79;100.00
18821;BME280;9539;59.332;18.034;2022-12-05T07:46:02;102775.41;;;0.68;100.00
18821;BME280;9539;59.332;18.034;2022-12-05T07:48:29;102785.72;;;0.58;100.00
18821;BME280;9539;59.332;18.034;2022-12-05T07:50:58;102794.19;;;0.38;100.00
18821;BME280;9539;59.332;18.034;2022-12-05T07:53:26;102782.25;;;0.57;100.00
18821;BME280;9539;59.332;18.034;2022-12-05T07:55:54;102779.56;;;0.51;100.00
18821;BME280;9539;59.332;18.034;2022-12-05T07:58:21;102777.91;;;0.58;100.00
18821;BME280;9539;59.332;18.034;2022-12-05T08:00:47;102770.13;;;0.64;100.00
18821;BME280;9539;59.332;18.034;2022-12-05T08:03:14;102768.41;;;0.66;100.00
18821;BME280;9539;59.332;18.034;2022-12-05T08:05:41;102758.97;;;0.77;100.00
18821;BME280;9539;59.332;18.034;2022-12-05T08:08:07;102752.00;;;0.77;100.00
18821;BME280;9539;59.332;18.034;2022-12-05T08:10:34;102751.25;;;0.88;100.00
18821;BME280;9539;59.332;18.034;2022-12-05T08:13:03;102746.81;;;0.80;100.00
18821;BME280;9539;59.332;18.034;2022-12-05T08:15:29;102754.72;;;0.87;100.00
18821;BME280;9539;59.332;18.034;2022-12-05T08:17:56;102751.41;;;1.04;100.00
18821;BME280;9539;59.332;18.034;2022-12-05T08:20:23;102758.22;;;0.89;100.00
18821;BME280;9539;59.332;18.034;2022-12-05T08:22:51;102756.28;;;0.72;100.00
18821;BME280;9539;59.332;18.034;2022-12-05T08:25:18;102759.09;;;0.89;100.00
18821;BME280;9539;59.332;18.034;2022-12-05T08:27:45;102752.97;;;0.84;100.00
18821;BME280;9539;59.332;18.034;2022-12-05T08:30:13;102747.78;;;0.90;100.00
18821;BME280;9539;59.332;18.034;2022-12-05T08:32:40;102748.69;;;0.94;100.00
18821;BME280;9539;59.332;18.034;2022-12-05T08:35:07;102745.91;;;0.78;100.00
18821;BME280;9539;59.332;18.034;2022-12-05T08:37:35;102747.84;;;0.95;100.00
18821;BME280;9539;59.332;18.034;2022-12-05T08:40:03;102741.91;;;1.09;100.00
18821;BME280;9539;59.332;18.034;2022-12-05T08:42:29;102747.94;;;1.05;100.00
18821;BME280;9539;59.332;18.034;2022-12-05T08:44:57;102748.69;;;0.94;100.00
18821;BME280;9539;59.332;18.034;2022-12-05T08:47:25;102748.72;;;0.98;100.00
18821;BME280;9539;59.332;18.034;2022-12-05T08:49:52;102759.91;;;0.84;100.00
18821;BME280;9539;59.332;18.034;2022-12-05T08:52:18;102755.41;;;0.72;100.00
18821;BME280;9539;59.332;18.034;2022-12-05T08:54:46;102752.72;;;0.66;100.00
18821;BME280;9539;59.332;18.034;2022-12-05T08:57:13;102744.31;;;0.93;100.00
18821;BME280;9539;59.332;18.034;2022-12-05T08:59:39;102735.75;;;1.07;100.00
18821;BME280;9539;59.332;18.034;2022-12-05T09:02:07;102739.28;;;1.12;100.00
18821;BME280;9539;59.332;18.034;2022-12-05T09:04:35;102741.97;;;1.18;100.00
18821;BME280;9539;59.332;18.034;2022-12-05T09:07:02;102744.50;;;1.11;100.00
18821;BME280;9539;59.332;18.034;2022-12-05T09:09:29;102747.91;;;1.04;100.00
18821;BME280;9539;59.332;18.034;2022-12-05T09:11:57;102741.06;;;1.15;100.00
18821;BME280;9539;59.332;18.034;2022-12-05T09:14:24;102737.47;;;1.02;100.00
18821;BME280;9539;59.332;18.034;2022-12-05T09:16:57;102745.50;;;1.24;100.00
18821;BME280;9539;59.332;18.034;2022-12-05T09:19:24;102725.81;;;0.73;100.00
18821;BME280;9539;59.332;18.034;2022-12-05T09:21:53;102725.25;;;1.01;100.00
18821;BME280;9539;59.332;18.034;2022-12-05T09:24:20;102717.59;;;1.24;100.00
18821;BME280;9539;59.332;18.034;2022-12-05T09:26:47;102708.94;;;1.27;100.00
18821;BME280;9539;59.332;18.034;2022-12-05T09:29:14;102716.75;;;1.22;100.00
18821;BME280;9539;59.332;18.034;2022-12-05T09:31:41;102713.78;;;0.89;100.00
18821;BME280;9539;59.332;18.034;2022-12-05T09:34:08;102705.28;;;1.11;100.00
18821;BME280;9539;59.332;18.034;2022-12-05T09:36:35;102708.84;;;1.19;100.00
18821;BME280;9539;59.332;18.034;2022-12-05T09:39:05;102706.22;;;1.17;100.00
18821;BME280;9539;59.332;18.034;2022-12-05T09:41:56;102691.53;;;1.29;100.00
18821;BME280;9539;59.332;18.034;2022-12-05T09:45:04;102684.50;;;1.26;100.00
18821;BME280;9539;59.332;18.034;2022-12-05T09:47:47;102699.50;;;1.47;100.00
18821;BME280;9539;59.332;18.034;2022-12-05T09:50:19;102692.38;;;1.28;100.00
18821;BME280;9539;59.332;18.034;2022-12-05T09:52:59;102695.94;;;1.36;100.00
18821;BME280;9539;59.332;18.034;2022-12-05T09:55:36;102686.28;;;1.29;100.00
18821;BME280;9539;59.332;18.034;2022-12-05T09:58:14;102684.69;;;1.46;100.00
18821;BME280;9539;59.332;18.034;2022-12-05T10:00:42;102689.06;;;1.48;100.00
18821;BME280;9539;59.332;18.034;2022-12-05T10:03:20;102697.44;;;1.09;100.00
18821;BME280;9539;59.332;18.034;2022-12-05T10:05:51;102689.69;;;1.20;100.00
18821;BME280;9539;59.332;18.034;2022-12-05T10:08:25;102691.63;;;1.41;100.00
18821;BME280;9539;59.332;18.034;2022-12-05T10:11:00;102686.44;;;1.47;100.00
18821;BME280;9539;59.332;18.034;2022-12-05T10:13:42;102690.91;;;1.62;100.00
18821;BME280;9539;59.332;18.034;2022-12-05T10:16:13;102675.13;;;1.52;100.00
18821;BME280;9539;59.332;18.034;2022-12-05T10:18:45;102668.13;;;1.47;100.00
18821;BME280;9539;59.332;18.034;2022-12-05T10:21:17;102664.59;;;1.42;100.00
18821;BME280;9539;59.332;18.034;2022-12-05T10:23:54;102669.09;;;1.64;100.00
18821;BME280;9539;59.332;18.034;2022-12-05T10:26:25;102664.69;;;1.55;100.00
18821;BME280;9539;59.332;18.034;2022-12-05T10:28:58;102659.53;;;1.69;100.00
18821;BME280;9539;59.332;18.034;2022-12-05T10:31:29;102657.91;;;1.86;100.00
18821;BME280;9539;59.332;18.034;2022-12-05T10:34:02;102657.94;;;1.97;100.00
18821;BME280;9539;59.332;18.034;2022-12-05T10:36:29;102643.19;;;2.07;100.00
18821;BME280;9539;59.332;18.034;2022-12-05T10:38:57;102641.44;;;2.12;100.00
18821;BME280;9539;59.332;18.034;2022-12-05T10:41:26;102635.34;;;2.11;100.00
18821;BME280;9539;59.332;18.034;2022-12-05T10:43:55;102630.06;;;2.05;100.00
18821;BME280;9539;59.332;18.034;2022-12-05T10:46:24;102623.09;;;2.07;100.00
18821;BME280;9539;59.332;18.034;2022-12-05T10:48:50;102631.78;;;1.98;100.00
18821;BME280;9539;59.332;18.034;2022-12-05T10:51:22;102627.34;;;1.84;100.00
18821;BME280;9539;59.332;18.034;2022-12-05T10:53:50;102630.72;;;1.60;100.00
18821;BME280;9539;59.332;18.034;2022-12-05T10:56:42;102630.88;;;1.92;100.00
18821;BME280;9539;59.332;18.034;2022-12-05T10:59:11;102616.91;;;1.87;100.00
18821;BME280;9539;59.332;18.034;2022-12-05T11:01:44;102618.53;;;1.62;100.00
18821;BME280;9539;59.332;18.034;2022-12-05T11:04:19;102611.59;;;1.75;100.00
18821;BME280;9539;59.332;18.034;2022-12-05T11:06:53;102599.41;;;1.83;100.00
18821;BME280;9539;59.332;18.034;2022-12-05T11:09:23;102606.44;;;1.96;100.00
18821;BME280;9539;59.332;18.034;2022-12-05T11:12:02;102600.28;;;1.80;100.00
18821;BME280;9539;59.332;18.034;2022-12-05T11:14:30;102596.88;;;1.99;100.00
18821;BME280;9539;59.332;18.034;2022-12-05T11:17:00;102591.59;;;1.90;100.00
18821;BME280;9539;59.332;18.034;2022-12-05T11:19:29;102588.97;;;1.89;100.00
18821;BME280;9539;59.332;18.034;2022-12-05T11:21:56;102588.13;;;1.97;100.00
18821;BME280;9539;59.332;18.034;2022-12-05T11:24:26;102573.28;;;1.95;100.00
18821;BME280;9539;59.332;18.034;2022-12-05T11:26:54;102570.69;;;1.99;100.00
18821;BME280;9539;59.332;18.034;2022-12-05T11:29:34;102571.56;;;2.01;100.00
18821;BME280;9539;59.332;18.034;2022-12-05T11:32:02;102567.06;;;1.70;100.00
18821;BME280;9539;59.332;18.034;2022-12-05T11:34:34;102561.78;;;1.59;100.00
18821;BME280;9539;59.332;18.034;2022-12-05T11:37:09;102550.59;;;1.92;100.00
18821;BME280;9539;59.332;18.034;2022-12-05T11:39:37;102554.00;;;1.70;100.00
18821;BME280;9539;59.332;18.034;2022-12-05T11:42:21;102542.69;;;1.74;100.00
18821;BME280;9539;59.332;18.034;2022-12-05T11:45:23;102539.13;;;1.65;100.00
18821;BME280;9539;59.332;18.034;2022-12-05T11:48:05;102533.06;;;1.76;100.00
18821;BME280;9539;59.332;18.034;2022-12-05T11:50:40;102530.53;;;1.87;100.00
18821;BME280;9539;59.332;18.034;2022-12-05T11:53:42;102526.13;;;1.84;100.00
18821;BME280;9539;59.332;18.034;2022-12-05T11:56:22;102519.94;;;1.59;100.00
18821;BME280;9539;59.332;18.034;2022-12-05T12:01:57;102515.53;;;1.51;100.00
18821;BME280;9539;59.332;18.034;2022-12-05T12:04:44;102511.97;;;1.37;100.00
18821;BME280;9539;59.332;18.034;2022-12-05T12:07:24;102509.47;;;1.61;100.00
18821;BME280;9539;59.332;18.034;2022-12-05T12:10:01;102502.53;;;1.72;100.00
18821;BME280;9539;59.332;18.034;2022-12-05T12:12:36;102500.78;;;1.68;100.00
18821;BME280;9539;59.332;18.034;2022-12-05T12:15:21;102492.78;;;1.35;100.00
18821;BME280;9539;59.332;18.034;2022-12-05T12:17:55;102492.78;;;1.38;100.00
18821;BME280;9539;59.332;18.034;2022-12-05T12:20:38;102487.41;;;1.12;100.00
18821;BME280;9539;59.332;18.034;2022-12-05T12:23:20;102488.44;;;1.35;100.00
18821;BME280;9539;59.332;18.034;2022-12-05T12:26:03;102478.84;;;1.36;100.00
18821;BME280;9539;59.332;18.034;2022-12-05T12:28:38;102470.19;;;1.53;100.00
18821;BME280;9539;59.332;18.034;2022-12-05T12:31:27;102471.97;;;1.54;100.00
18821;BME280;9539;59.332;18.034;2022-12-05T12:34:04;102471.06;;;1.52;100.00
18821;BME280;9539;59.332;18.034;2022-12-05T12:36:42;102455.41;;;1.60;100.00
18821;BME280;9539;59.332;18.034;2022-12-05T12:39:25;102465.91;;;1.77;100.00
18821;BME280;9539;59.332;18.034;2022-12-05T12:42:19;102461.53;;;1.77;100.00
18821;BME280;9539;59.332;18.034;2022-12-05T12:45:05;102459.81;;;1.78;100.00
18821;BME280;9539;59.332;18.034;2022-12-05T12:47:47;102454.56;;;1.82;100.00
18821;BME280;9539;59.332;18.034;2022-12-05T12:50:21;102445.88;;;1.80;100.00
18821;BME280;9539;59.332;18.034;2022-12-05T12:53:13;102442.38;;;1.84;100.00
18821;BME280;9539;59.332;18.034;2022-12-05T12:55:49;102424.00;;;1.62;100.00
18821;BME280;9539;59.332;18.034;2022-12-05T12:58:28;102422.22;;;1.51;100.00
18821;BME280;9539;59.332;18.034;2022-12-05T13:01:03;102416.97;;;1.45;100.00
18821;BME280;9539;59.332;18.034;2022-12-05T13:03:38;102415.25;;;1.49;100.00
18821;BME280;9539;59.332;18.034;2022-12-05T13:06:13;102405.69;;;1.66;100.00
18821;BME280;9539;59.332;18.034;2022-12-05T13:08:47;102404.81;;;1.55;100.00
18821;BME280;9539;59.332;18.034;2022-12-05T13:11:17;102401.28;;;1.51;100.00
18821;BME280;9539;59.332;18.034;2022-12-05T13:13:47;102397.81;;;1.63;100.00